Time;durP1;ratioP1;P1;durP2;ratioP2;P2;SDS_P1;SDS_P2;PMS_P1;PMS_P2;Temp;Humidity;BMP_temperature;BMP_pressure;BME280_temperature;BME280_humidity;BME280_pressure;Samples;Min_cycle;Max_cycle;Signal;HPM_P1;HPM_P2
2021/06/27 00:00:39;;;;;;;12.63;3.33;;;;;;;22.47;52.68;100459.41;4987075;28;20077;-67
2021/06/27 00:03:07;;;;;;;6.40;3.35;;;;;;;22.60;52.38;100465.06;4988137;28;20129;-68
2021/06/27 00:05:35;;;;;;;8.52;3.05;;;;;;;22.73;51.78;100452.38;4994171;28;20074;-70
2021/06/27 00:08:04;;;;;;;5.75;3.17;;;;;;;22.65;52.05;100427.78;4996247;28;20129;-68
2021/06/27 00:10:40;;;;;;;7.63;3.38;;;;;;;22.87;51.65;100454.78;5006854;28;20104;-66
2021/06/27 00:13:07;;;;;;;7.13;2.78;;;;;;;22.84;51.82;100450.66;4993233;28;20221;-66
2021/06/27 00:15:41;;;;;;;5.10;2.97;;;;;;;22.90;51.97;100454.88;4987077;28;20046;-66
2021/06/27 00:18:11;;;;;;;4.43;2.53;;;;;;;22.78;51.64;100425.69;4992486;28;20089;-66
2021/06/27 00:20:39;;;;;;;4.95;3.03;;;;;;;22.89;51.34;100439.00;4999934;28;20084;-67
2021/06/27 00:23:07;;;;;;;4.63;2.75;;;;;;;22.91;51.25;100450.03;4999085;28;20065;-67
2021/06/27 00:25:35;;;;;;;5.85;2.72;;;;;;;22.96;51.32;100446.09;4993212;28;20129;-67
2021/06/27 00:28:03;;;;;;;5.80;2.90;;;;;;;22.88;51.64;100443.03;4991274;28;20514;-68
2021/06/27 00:30:31;;;;;;;7.10;3.00;;;;;;;22.83;51.38;100434.75;4982504;28;20047;-71
2021/06/27 00:32:59;;;;;;;5.90;2.72;;;;;;;22.93;51.23;100442.78;4989090;28;20121;-69
2021/06/27 00:35:27;;;;;;;6.13;3.20;;;;;;;22.97;51.01;100440.03;4992751;28;20125;-69
2021/06/27 00:37:54;;;;;;;8.07;2.70;;;;;;;23.01;50.85;100451.50;4993429;28;20173;-69
2021/06/27 00:40:24;;;;;;;8.13;3.08;;;;;;;22.60;51.49;100413.81;4992917;28;20128;-71
2021/06/27 00:42:52;;;;;;;6.63;2.65;;;;;;;22.84;51.65;100458.38;4993258;28;20458;-71
2021/06/27 00:45:20;;;;;;;5.30;2.47;;;;;;;22.90;51.39;100454.88;4988028;28;20070;-72
2021/06/27 00:47:48;;;;;;;5.82;2.63;;;;;;;22.81;51.96;100440.00;4993531;28;20048;-72
2021/06/27 00:50:20;;;;;;;7.80;3.10;;;;;;;23.00;51.89;100447.84;5001711;28;20047;-72
2021/06/27 00:52:47;;;;;;;9.23;2.75;;;;;;;22.91;51.74;100425.22;4989997;28;20129;-72
2021/06/27 00:55:15;;;;;;;4.68;2.33;;;;;;;22.97;51.79;100434.31;4994637;28;20125;-72
2021/06/27 00:57:44;;;;;;;6.90;2.80;;;;;;;22.87;51.41;100418.63;4980004;28;20574;-73
2021/06/27 01:00:13;;;;;;;4.88;2.55;;;;;;;22.88;51.64;100436.53;4981116;28;20047;-72
2021/06/27 01:02:41;;;;;;;5.75;2.63;;;;;;;22.78;51.63;100443.59;4983080;28;20125;-72
2021/06/27 01:05:13;;;;;;;6.60;3.78;;;;;;;22.66;51.45;100416.00;4986495;28;20446;-74
2021/06/27 01:07:40;;;;;;;7.38;2.85;;;;;;;22.66;51.93;100427.38;4997088;28;20081;-74
2021/06/27 01:10:08;;;;;;;5.75;2.88;;;;;;;22.61;52.37;100415.47;4987902;28;20133;-74
2021/06/27 01:12:35;;;;;;;4.60;2.10;;;;;;;22.70;52.13;100416.94;4983422;28;20129;-64
2021/06/27 01:15:04;;;;;;;5.68;3.08;;;;;;;22.85;52.28;100415.28;4985650;28;20169;-63
2021/06/27 01:17:32;;;;;;;6.27;3.20;;;;;;;22.85;51.93;100420.16;4983289;28;20047;-69
2021/06/27 01:19:59;;;;;;;6.10;3.50;;;;;;;22.88;52.25;100416.59;4993481;28;20299;-68
2021/06/27 01:22:26;;;;;;;5.95;3.08;;;;;;;22.84;51.85;100413.66;4984926;28;20172;-69
2021/06/27 01:24:53;;;;;;;4.47;2.42;;;;;;;22.86;51.61;100405.56;4988981;28;20485;-68
2021/06/27 01:27:20;;;;;;;6.50;2.88;;;;;;;22.96;51.68;100418.44;4980365;28;20081;-70
2021/06/27 01:29:47;;;;;;;6.72;2.85;;;;;;;22.90;51.70;100412.16;5007605;28;20070;-69
2021/06/27 01:32:14;;;;;;;3.97;2.25;;;;;;;22.90;51.69;100411.34;4991929;28;20130;-69
2021/06/27 01:34:44;;;;;;;5.80;2.22;;;;;;;22.81;51.81;100405.00;4988186;28;20064;-68
2021/06/27 01:37:11;;;;;;;8.80;2.70;;;;;;;22.82;51.50;100415.19;4991456;28;20092;-68
2021/06/27 01:39:39;;;;;;;6.15;2.33;;;;;;;22.85;51.58;100401.06;4991842;28;20089;-68
2021/06/27 01:42:06;;;;;;;6.20;2.30;;;;;;;22.85;51.65;100398.22;4995138;28;21087;-65
2021/06/27 01:44:33;;;;;;;3.92;2.45;;;;;;;22.90;51.28;100389.38;4989361;28;20125;-65
2021/06/27 01:47:00;;;;;;;4.25;2.05;;;;;;;23.04;51.42;100413.75;4983322;28;20129;-66
2021/06/27 01:49:28;;;;;;;4.25;2.47;;;;;;;22.85;51.37;100386.81;4986496;28;20038;-69
2021/06/27 01:51:55;;;;;;;5.38;2.33;;;;;;;22.91;51.65;100402.44;4986961;28;20077;-62
2021/06/27 01:54:22;;;;;;;5.82;2.28;;;;;;;22.85;51.24;100408.78;4993823;28;20139;-66
2021/06/27 01:56:49;;;;;;;7.63;2.30;;;;;;;22.74;51.36;100396.28;4990940;28;20129;-64
2021/06/27 01:59:16;;;;;;;4.97;2.10;;;;;;;22.72;51.72;100410.88;4986004;28;20261;-71
2021/06/27 02:01:43;;;;;;;4.70;2.08;;;;;;;22.74;51.71;100417.03;4989020;28;20082;-67
2021/06/27 02:04:10;;;;;;;7.70;2.67;;;;;;;22.66;51.15;100407.47;4985688;28;20050;-68
2021/06/27 02:06:41;;;;;;;3.20;1.70;;;;;;;22.56;51.56;100404.34;4996327;28;20084;-69
2021/06/27 02:09:11;;;;;;;3.22;1.90;;;;;;;22.52;51.88;100404.25;5002150;28;20050;-67
2021/06/27 02:11:40;;;;;;;4.90;1.88;;;;;;;22.51;51.28;100394.06;4975145;28;20126;-67
2021/06/27 02:14:08;;;;;;;5.20;2.22;;;;;;;22.45;51.07;100410.56;4989171;28;20467;-65
2021/06/27 02:16:35;;;;;;;3.15;1.83;;;;;;;22.20;51.26;100397.69;5003826;28;20101;-66
2021/06/27 02:19:03;;;;;;;7.68;2.70;;;;;;;22.07;51.55;100382.66;4991457;28;20129;-66
2021/06/27 02:21:33;;;;;;;6.22;2.38;;;;;;;22.15;51.87;100397.94;4973568;28;20122;-69
2021/06/27 02:24:01;;;;;;;5.10;2.35;;;;;;;21.91;52.23;100395.97;4977964;28;20134;-68
2021/06/27 02:26:28;;;;;;;4.28;2.38;;;;;;;21.81;53.22;100390.81;4984401;28;20074;-69
2021/06/27 02:28:58;;;;;;;6.38;2.35;;;;;;;21.92;52.56;100389.94;4999586;28;20133;-70
2021/06/27 02:31:28;;;;;;;5.07;2.65;;;;;;;21.73;52.60;100384.09;4990773;28;20077;-66
2021/06/27 02:33:55;;;;;;;4.50;2.75;;;;;;;21.61;53.14;100398.34;4977938;28;20105;-72
2021/06/27 02:36:22;;;;;;;4.93;2.72;;;;;;;21.60;53.25;100391.81;4981692;28;20047;-70
2021/06/27 02:38:50;;;;;;;5.05;2.35;;;;;;;21.68;53.45;100398.56;4981142;28;20142;-70
2021/06/27 02:41:18;;;;;;;4.65;2.92;;;;;;;21.64;53.28;100384.25;4988148;28;20089;-67
2021/06/27 02:43:46;;;;;;;7.13;3.13;;;;;;;21.51;53.76;100376.94;4976838;28;20129;-65
2021/06/27 02:46:13;;;;;;;8.40;2.63;;;;;;;21.53;53.92;100375.38;4982189;28;20315;-69
2021/06/27 02:48:40;;;;;;;4.93;2.70;;;;;;;21.48;53.47;100378.47;4990861;28;20046;-67
2021/06/27 02:51:07;;;;;;;5.25;3.60;;;;;;;21.49;53.75;100382.13;5011965;28;20137;-69
2021/06/27 02:53:34;;;;;;;6.07;2.58;;;;;;;21.70;53.38;100385.63;4986729;28;20643;-69
2021/06/27 02:56:07;;;;;;;5.55;2.78;;;;;;;21.61;53.38;100378.47;4992564;28;20070;-70
2021/06/27 02:58:40;;;;;;;5.15;2.28;;;;;;;21.37;53.76;100383.00;4990631;28;20101;-70
2021/06/27 03:01:08;;;;;;;5.28;2.35;;;;;;;21.11;53.98;100388.22;4993060;28;20077;-71
2021/06/27 03:03:37;;;;;;;5.88;2.60;;;;;;;20.75;54.35;100379.34;4993911;28;20060;-70
2021/06/27 03:06:05;;;;;;;10.57;2.90;;;;;;;20.56;55.03;100382.75;4997936;28;20127;-71
2021/06/27 03:08:32;;;;;;;5.10;2.95;;;;;;;20.31;55.35;100386.69;4983133;28;20045;-71
2021/06/27 03:10:59;;;;;;;6.00;3.25;;;;;;;19.89;56.08;100358.41;4987202;28;20050;-71
2021/06/27 03:13:26;;;;;;;8.52;2.70;;;;;;;19.84;56.70;100382.13;4991970;28;20078;-71
2021/06/27 03:15:53;;;;;;;5.65;2.97;;;;;;;19.86;56.83;100390.28;4992930;28;20157;-71
2021/06/27 03:18:20;;;;;;;4.93;2.38;;;;;;;19.75;56.93;100389.06;5007413;28;20089;-71
2021/06/27 03:20:47;;;;;;;7.00;2.80;;;;;;;19.55;57.28;100371.69;4997657;28;20074;-67
2021/06/27 03:23:14;;;;;;;6.78;2.75;;;;;;;19.52;57.34;100338.41;4995489;28;20133;-66
2021/06/27 03:25:41;;;;;;;8.20;3.05;;;;;;;19.77;57.69;100372.53;4995014;28;20053;-66
2021/06/27 03:28:09;;;;;;;8.10;3.03;;;;;;;19.87;57.27;100383.47;4995932;28;20081;-69
2021/06/27 03:30:36;;;;;;;5.45;2.63;;;;;;;19.71;57.49;100359.75;4993374;28;20074;-69
2021/06/27 03:33:05;;;;;;;7.65;2.58;;;;;;;19.66;57.50;100374.97;4993254;28;20047;-68
2021/06/27 03:35:32;;;;;;;5.80;3.13;;;;;;;19.38;57.96;100352.00;4994510;28;20100;-65
2021/06/27 03:40:29;;;;;;;5.25;2.70;;;;;;;19.37;58.27;100379.47;4999261;28;20069;-65
2021/06/27 03:43:01;;;;;;;4.43;2.97;;;;;;;19.26;58.10;100363.25;4980022;28;20042;-65
2021/06/27 03:45:28;;;;;;;4.32;2.08;;;;;;;19.30;58.28;100373.53;4990017;28;20046;-67
2021/06/27 03:47:57;;;;;;;5.38;2.13;;;;;;;19.31;58.20;100380.03;4983731;28;20081;-69
2021/06/27 03:50:24;;;;;;;4.68;2.45;;;;;;;19.29;58.59;100379.56;4982326;28;20205;-68
2021/06/27 03:52:51;;;;;;;4.95;2.20;;;;;;;19.48;58.48;100377.06;4992837;28;20085;-67
2021/06/27 03:55:19;;;;;;;5.40;2.72;;;;;;;19.60;58.07;100379.97;4990316;28;20074;-67
2021/06/27 03:57:47;;;;;;;6.18;2.17;;;;;;;19.53;58.33;100371.22;4995597;28;20042;-67
2021/06/27 04:00:16;;;;;;;3.38;2.15;;;;;;;19.54;58.50;100378.53;4987128;28;20074;-67
2021/06/27 04:02:44;;;;;;;3.80;2.05;;;;;;;19.70;58.38;100377.94;4991548;28;20080;-66
2021/06/27 04:05:12;;;;;;;7.13;1.85;;;;;;;19.67;58.38;100381.47;4979580;28;20133;-66
2021/06/27 04:07:39;;;;;;;4.55;2.25;;;;;;;19.62;58.35;100380.47;4988607;28;20223;-68
2021/06/27 04:10:07;;;;;;;5.47;2.25;;;;;;;19.47;58.25;100383.91;4994006;28;20126;-62
2021/06/27 04:12:34;;;;;;;4.55;2.25;;;;;;;19.04;58.38;100353.91;4989362;28;20129;-62
2021/06/27 04:15:04;;;;;;;5.63;2.22;;;;;;;19.26;58.60;100383.91;4989702;28;20050;-63
2021/06/27 04:17:31;;;;;;;4.13;2.23;;;;;;;19.21;58.81;100388.91;4993512;28;20072;-60
2021/06/27 04:19:58;;;;;;;6.20;2.45;;;;;;;19.05;58.88;100389.53;4982856;28;20064;-60
2021/06/27 04:22:25;;;;;;;5.75;2.50;;;;;;;19.02;59.25;100390.22;4983927;28;20051;-61
2021/06/27 04:24:51;;;;;;;4.38;2.17;;;;;;;18.92;59.52;100384.94;4987907;28;20054;-61
2021/06/27 04:27:18;;;;;;;4.88;2.67;;;;;;;18.83;59.88;100379.31;4988586;28;20454;-61
2021/06/27 04:29:45;;;;;;;5.82;2.70;;;;;;;18.98;59.51;100377.91;4987897;28;20055;-62
2021/06/27 04:32:12;;;;;;;7.43;2.53;;;;;;;19.13;59.18;100382.97;4991937;28;20145;-62
2021/06/27 04:34:39;;;;;;;5.05;2.13;;;;;;;19.09;59.38;100389.66;4993297;28;20047;-66
2021/06/27 04:37:06;;;;;;;6.15;2.47;;;;;;;19.03;59.30;100389.03;4980462;28;20042;-66
2021/06/27 04:39:33;;;;;;;5.15;2.58;;;;;;;18.75;59.38;100376.53;4985903;28;20092;-69
2021/06/27 04:42:00;;;;;;;5.80;2.65;;;;;;;18.92;59.45;100370.78;4979737;28;20474;-68
2021/06/27 04:44:27;;;;;;;4.88;2.60;;;;;;;19.00;59.53;100386.88;4984736;28;20050;-68
2021/06/27 04:46:54;;;;;;;6.15;1.90;;;;;;;18.98;59.66;100380.75;4987894;28;20125;-69
2021/06/27 04:49:21;;;;;;;6.50;2.58;;;;;;;18.97;59.79;100390.38;4990208;28;20127;-68
2021/06/27 04:51:48;;;;;;;6.45;2.55;;;;;;;18.96;59.92;100388.75;4985598;28;20051;-69
2021/06/27 04:54:16;;;;;;;5.10;2.30;;;;;;;18.84;59.84;100366.03;4987935;28;20085;-70
2021/06/27 04:56:42;;;;;;;4.85;2.72;;;;;;;18.89;60.06;100391.28;4981170;28;20125;-70
2021/06/27 04:59:10;;;;;;;5.75;2.80;;;;;;;18.86;60.32;100389.94;4989187;28;20051;-70
2021/06/27 05:01:37;;;;;;;4.60;1.90;;;;;;;18.78;60.02;100381.53;4975512;28;20086;-68
2021/06/27 05:04:04;;;;;;;4.80;2.47;;;;;;;18.78;60.04;100385.16;4990849;28;20047;-69
2021/06/27 05:06:31;;;;;;;8.57;2.13;;;;;;;18.73;60.49;100379.69;4985875;28;20055;-69
2021/06/27 05:08:57;;;;;;;5.07;2.38;;;;;;;18.67;60.32;100379.03;4975403;28;20462;-69
2021/06/27 05:11:24;;;;;;;4.18;2.20;;;;;;;18.69;60.11;100390.81;4986929;28;20051;-70
2021/06/27 05:13:51;;;;;;;5.68;2.17;;;;;;;18.73;60.42;100395.84;4988495;28;20129;-69
2021/06/27 05:16:18;;;;;;;4.25;2.35;;;;;;;18.68;60.28;100392.00;4989313;28;20106;-67
2021/06/27 05:18:45;;;;;;;4.25;1.83;;;;;;;18.73;60.47;100393.00;4982476;28;20523;-67
2021/06/27 05:21:12;;;;;;;5.38;2.92;;;;;;;18.72;60.26;100403.50;4989214;28;20160;-62
2021/06/27 05:23:39;;;;;;;6.30;2.53;;;;;;;18.68;60.58;100406.16;4993433;28;20467;-62
2021/06/27 05:26:05;;;;;;;4.43;2.50;;;;;;;18.74;60.59;100406.00;4980500;28;20090;-67
2021/06/27 05:28:32;;;;;;;4.30;2.13;;;;;;;18.78;60.39;100415.47;4991260;28;20133;-65
2021/06/27 05:30:59;;;;;;;7.75;2.92;;;;;;;18.74;60.39;100400.34;4980381;28;20073;-63
2021/06/27 05:33:26;;;;;;;6.40;2.35;;;;;;;18.87;60.44;100411.44;5000417;28;20041;-67
2021/06/27 05:35:53;;;;;;;7.43;2.65;;;;;;;18.91;60.29;100401.09;4996794;28;20708;-63
2021/06/27 05:38:20;;;;;;;4.30;2.40;;;;;;;18.96;59.86;100402.88;4989015;28;20134;-64
2021/06/27 05:40:47;;;;;;;5.93;2.80;;;;;;;19.00;59.91;100398.19;4976832;28;20526;-63
2021/06/27 05:43:13;;;;;;;5.53;2.63;;;;;;;18.77;59.70;100368.53;4973330;28;20128;-64
2021/06/27 05:45:40;;;;;;;6.45;2.80;;;;;;;19.04;59.91;100404.84;4984793;28;20077;-63
2021/06/27 05:48:08;;;;;;;4.13;2.08;;;;;;;19.22;59.35;100404.75;4987815;28;20050;-63
2021/06/27 05:50:35;;;;;;;4.47;2.40;;;;;;;19.24;59.14;100405.22;4992202;28;20085;-64
2021/06/27 05:53:03;;;;;;;4.60;2.25;;;;;;;19.14;58.85;100392.28;4992248;28;20093;-64
2021/06/27 05:55:30;;;;;;;4.45;2.47;;;;;;;19.17;59.05;100415.06;4979213;28;20122;-64
2021/06/27 05:57:56;;;;;;;6.63;2.35;;;;;;;19.12;59.38;100423.78;4980883;28;20126;-65
2021/06/27 06:00:23;;;;;;;5.05;2.13;;;;;;;19.09;59.28;100407.47;4986105;28;20081;-66
2021/06/27 06:02:50;;;;;;;3.70;2.03;;;;;;;19.27;59.48;100421.53;4990716;28;20097;-65
2021/06/27 06:05:17;;;;;;;5.28;2.70;;;;;;;19.25;59.11;100395.56;4987634;28;20137;-65
2021/06/27 06:07:44;;;;;;;6.10;2.50;;;;;;;19.29;59.02;100417.19;4993217;28;20106;-66
2021/06/27 06:10:11;;;;;;;5.05;2.60;;;;;;;19.21;59.76;100414.41;4990714;28;20129;-62
2021/06/27 06:12:38;;;;;;;4.97;3.10;;;;;;;18.86;60.33;100380.63;4987633;28;20133;-65
2021/06/27 06:15:05;;;;;;;6.05;2.50;;;;;;;18.96;60.65;100419.03;4991068;28;20294;-65
2021/06/27 06:17:32;;;;;;;7.00;2.60;;;;;;;18.89;61.16;100422.41;4994162;28;20129;-66
2021/06/27 06:19:59;;;;;;;5.28;3.15;;;;;;;18.73;61.45;100424.13;5010913;28;20140;-66
2021/06/27 06:22:27;;;;;;;9.73;2.83;;;;;;;18.51;61.81;100423.19;4993163;28;20060;-64
2021/06/27 06:24:54;;;;;;;9.30;3.05;;;;;;;18.38;62.12;100418.56;4987149;28;20046;-65
2021/06/27 06:27:21;;;;;;;6.97;3.05;;;;;;;18.29;63.06;100423.38;5006158;28;20089;-66
2021/06/27 06:29:48;;;;;;;5.75;2.83;;;;;;;18.27;63.18;100420.09;5004483;28;20074;-66
2021/06/27 06:32:15;;;;;;;5.72;3.05;;;;;;;18.27;63.51;100422.91;4990847;28;20132;-65
2021/06/27 06:34:42;;;;;;;5.93;2.83;;;;;;;18.21;63.53;100427.91;4984492;28;20077;-65
2021/06/27 06:37:09;;;;;;;8.68;3.03;;;;;;;18.10;63.81;100432.25;4976027;28;20046;-64
2021/06/27 06:39:36;;;;;;;5.05;2.60;;;;;;;18.07;63.95;100436.56;4982112;28;20477;-64
2021/06/27 06:42:03;;;;;;;3.80;1.92;;;;;;;17.47;64.37;100361.97;4978451;28;20625;-71
2021/06/27 06:44:29;;;;;;;4.82;2.20;;;;;;;17.89;64.40;100435.75;4992848;28;20082;-71
2021/06/27 06:46:56;;;;;;;4.03;2.20;;;;;;;17.84;64.90;100427.44;4992811;28;20046;-69
2021/06/27 06:49:23;;;;;;;3.47;2.08;;;;;;;17.77;64.84;100418.63;4979449;28;20116;-69
2021/06/27 06:51:50;;;;;;;4.15;1.80;;;;;;;17.83;65.15;100430.59;4991763;28;20100;-70
2021/06/27 06:54:17;;;;;;;4.78;2.40;;;;;;;17.67;65.31;100435.88;4998473;28;20046;-69
2021/06/27 06:56:43;;;;;;;5.07;1.77;;;;;;;17.60;65.28;100425.06;4988021;28;20085;-61
2021/06/27 06:59:10;;;;;;;4.65;1.83;;;;;;;17.60;65.87;100430.72;4986817;28;20129;-63
2021/06/27 07:01:40;;;;;;;;;;;;;;;17.62;65.22;100431.22;4986567;28;20102;-64
2021/06/27 07:04:07;;;;;;;5.90;3.30;;;;;;;17.56;65.67;100429.72;4990300;28;19980;-71
2021/06/27 07:06:34;;;;;;;3.88;2.05;;;;;;;17.64;66.00;100428.91;4988537;28;20493;-71
2021/06/27 07:09:01;;;;;;;4.57;2.20;;;;;;;17.73;66.25;100435.38;4985851;28;20126;-71
2021/06/27 07:11:28;;;;;;;4.78;2.35;;;;;;;17.96;66.54;100433.25;4982257;28;20125;-71
2021/06/27 07:13:54;;;;;;;2.95;1.60;;;;;;;17.92;66.14;100398.34;4984301;28;20126;-71
2021/06/27 07:16:22;;;;;;;4.10;1.55;;;;;;;18.11;65.77;100412.13;4986139;28;20046;-71
2021/06/27 07:18:49;;;;;;;6.25;1.90;;;;;;;18.29;65.30;100446.00;4988943;28;20082;-71
2021/06/27 07:21:16;;;;;;;5.95;2.60;;;;;;;18.21;65.82;100425.91;5005213;28;20142;-71
2021/06/27 07:23:43;;;;;;;4.60;1.58;;;;;;;17.93;65.45;100377.41;4988987;28;20565;-71
2021/06/27 07:26:10;;;;;;;6.55;1.63;;;;;;;18.32;65.16;100442.50;4997447;28;20090;-70
2021/06/27 07:28:37;;;;;;;6.68;2.38;;;;;;;18.48;65.13;100441.63;4993901;28;20553;-67
2021/06/27 07:31:04;;;;;;;10.82;3.08;;;;;;;18.48;64.75;100424.69;4992491;28;20126;-69
2021/06/27 07:33:31;;;;;;;6.47;2.88;;;;;;;18.68;64.45;100448.56;4987358;28;20581;-70
2021/06/27 07:35:58;;;;;;;6.50;3.53;;;;;;;18.96;64.05;100456.66;4993368;28;20102;-69
2021/06/27 07:38:25;;;;;;;6.53;2.58;;;;;;;19.26;63.33;100459.50;4997106;28;20335;-69
2021/06/27 07:40:52;;;;;;;4.30;1.80;;;;;;;19.32;62.89;100461.00;4992268;28;20100;-71
2021/06/27 07:43:19;;;;;;;4.65;1.45;;;;;;;19.43;62.89;100467.91;4985899;28;20073;-69
2021/06/27 07:45:46;;;;;;;2.53;1.45;;;;;;;19.44;62.70;100463.91;4993777;28;20077;-70
2021/06/27 07:48:13;;;;;;;6.55;1.40;;;;;;;19.39;62.57;100422.47;4989601;28;20046;-70
2021/06/27 07:50:44;;;;;;;2.88;1.63;;;;;;;19.92;62.37;100468.25;4992037;28;20043;-70
2021/06/27 07:53:10;;;;;;;5.55;1.80;;;;;;;20.03;62.16;100458.16;4989367;28;20189;-71
2021/06/27 07:55:38;;;;;;;6.15;1.52;;;;;;;20.15;62.05;100451.72;4988667;28;20092;-70
2021/06/27 07:58:06;;;;;;;3.05;1.88;;;;;;;20.57;61.46;100463.81;4984072;28;20074;-70
2021/06/27 08:00:32;;;;;;;2.33;1.33;;;;;;;20.82;60.92;100450.53;4987723;28;20530;-70
2021/06/27 08:03:01;;;;;;;2.92;1.45;;;;;;;21.30;60.10;100470.81;4981370;28;20051;-70
2021/06/27 08:05:31;;;;;;;2.72;1.40;;;;;;;21.69;59.17;100465.56;4984814;28;20043;-69
2021/06/27 08:07:58;;;;;;;2.72;1.20;;;;;;;22.00;58.86;100465.72;4985825;28;21840;-68
2021/06/27 08:10:29;;;;;;;1.48;1.02;;;;;;;22.26;58.02;100472.19;4993235;28;20053;-68
2021/06/27 08:12:56;;;;;;;4.60;1.08;;;;;;;22.29;57.40;100466.63;4987136;28;20412;-69
2021/06/27 08:15:23;;;;;;;2.25;0.90;;;;;;;22.62;56.60;100463.47;4988928;28;20125;-68
2021/06/27 08:17:51;;;;;;;3.72;1.30;;;;;;;22.86;56.09;100461.66;4992439;28;20121;-67
2021/06/27 08:20:21;;;;;;;2.20;1.10;;;;;;;23.01;55.73;100463.75;4994098;28;20105;-67
2021/06/27 08:22:49;;;;;;;7.40;1.58;;;;;;;23.71;53.72;100463.03;4992351;28;20133;-70
2021/06/27 08:25:16;;;;;;;3.72;1.33;;;;;;;24.00;53.33;100475.06;4994897;28;20470;-69
2021/06/27 08:27:43;;;;;;;3.60;1.30;;;;;;;24.10;52.53;100475.34;5009882;28;20133;-69
2021/06/27 08:30:13;;;;;;;1.73;0.95;;;;;;;24.36;52.24;100460.38;4994754;28;20133;-69
2021/06/27 08:32:43;;;;;;;2.97;1.20;;;;;;;24.75;51.57;100466.06;4994484;28;20058;-68
2021/06/27 08:35:16;;;;;;;6.30;2.00;;;;;;;24.77;51.13;100468.53;4995043;28;20388;-68
2021/06/27 08:37:44;;;;;;;6.65;2.17;;;;;;;25.22;50.58;100469.78;4994241;28;20121;-68
2021/06/27 08:40:14;;;;;;;4.78;1.42;;;;;;;25.67;49.41;100473.75;4994447;28;20047;-69
2021/06/27 08:42:41;;;;;;;6.00;3.63;;;;;;;25.86;49.21;100467.13;4992792;28;20465;-68
2021/06/27 08:45:13;;;;;;;4.65;2.83;;;;;;;26.02;48.20;100470.66;5009474;28;20133;-68
2021/06/27 08:47:40;;;;;;;3.55;1.95;;;;;;;26.15;47.29;100479.78;4994241;28;20086;-68
2021/06/27 08:50:10;;;;;;;3.38;2.13;;;;;;;26.20;47.16;100476.59;4981191;28;20129;-68
2021/06/27 08:52:37;;;;;;;3.60;1.45;;;;;;;25.96;47.18;100435.00;4975210;28;20462;-68
2021/06/27 08:55:05;;;;;;;5.07;1.15;;;;;;;26.34;46.39;100470.22;4979730;28;20122;-68
2021/06/27 08:57:32;;;;;;;3.60;1.60;;;;;;;26.59;46.02;100482.81;4979019;28;20138;-68
2021/06/27 08:59:59;;;;;;;1.88;1.05;;;;;;;26.82;45.04;100456.06;4974833;28;20411;-68
2021/06/27 09:02:26;;;;;;;2.25;1.08;;;;;;;27.42;43.69;100473.03;4992097;28;20130;-68
2021/06/27 09:04:53;;;;;;;1.65;1.08;;;;;;;27.76;43.35;100481.47;4989443;28;20082;-69
2021/06/27 09:07:40;;;;;;;3.05;1.40;;;;;;;28.03;43.66;100474.25;4974988;28;20143;-68
2021/06/27 09:10:24;;;;;;;4.68;1.38;;;;;;;28.27;42.15;100483.41;4984320;28;20078;-68
2021/06/27 09:12:58;;;;;;;1.88;1.20;;;;;;;28.56;41.24;100479.47;4993537;28;20121;-69
2021/06/27 09:15:45;;;;;;;2.78;1.02;;;;;;;28.86;41.08;100486.94;4993557;28;20153;-68
2021/06/27 09:18:15;;;;;;;2.30;1.08;;;;;;;28.72;40.56;100481.16;4992503;28;20065;-68
2021/06/27 09:20:44;;;;;;;2.95;1.50;;;;;;;28.47;40.59;100493.38;4979321;28;20054;-68
2021/06/27 09:23:13;;;;;;;5.07;2.17;;;;;;;28.52;40.64;100490.13;4974506;28;20075;-68
2021/06/27 09:25:42;;;;;;;2.53;1.83;;;;;;;28.97;40.14;100490.66;4974322;28;20074;-69
2021/06/27 09:28:17;;;;;;;2.17;1.30;;;;;;;29.25;39.48;100487.00;4993842;28;20495;-68
2021/06/27 09:30:53;;;;;;;3.20;1.90;;;;;;;29.42;38.70;100491.13;4994971;28;20376;-68
2021/06/27 09:33:22;;;;;;;2.78;1.42;;;;;;;29.41;37.64;100431.97;4997463;28;20209;-69
2021/06/27 09:35:56;;;;;;;3.78;1.90;;;;;;;29.84;38.16;100489.47;4995318;28;20491;-69
2021/06/27 09:38:29;;;;;;;2.35;1.40;;;;;;;29.94;37.73;100488.63;4996908;28;20046;-69
2021/06/27 09:41:30;;;;;;;4.30;1.60;;;;;;;29.99;37.62;100485.31;4993105;28;20141;-69
2021/06/27 09:44:05;;;;;;;2.22;1.35;;;;;;;29.58;37.42;100484.97;4993530;28;20082;-69
2021/06/27 09:46:40;;;;;;;2.03;1.35;;;;;;;29.12;37.90;100482.06;4993493;28;20089;-69
2021/06/27 09:49:13;;;;;;;2.95;1.38;;;;;;;28.76;38.11;100493.47;4991587;28;20089;-70
2021/06/27 09:51:47;;;;;;;5.78;1.52;;;;;;;28.57;38.06;100492.59;4993461;28;20121;-69
2021/06/27 09:54:16;;;;;;;3.28;1.13;;;;;;;28.17;38.04;100438.25;4993204;28;20217;-69
2021/06/27 09:56:43;;;;;;;3.38;1.30;;;;;;;28.69;37.86;100494.28;4993333;28;20521;-69
2021/06/27 09:59:13;;;;;;;1.63;1.33;;;;;;;28.97;37.11;100492.72;4992101;28;20137;-69
2021/06/27 10:01:40;;;;;;;2.63;1.55;;;;;;;29.22;36.59;100492.75;4992433;28;20086;-69
2021/06/27 10:04:10;;;;;;;3.78;2.45;;;;;;;29.65;36.54;100481.28;4993050;28;20046;-69
2021/06/27 10:06:52;;;;;;;4.18;1.60;;;;;;;29.69;36.73;100493.59;4993158;28;20058;-70
2021/06/27 10:09:39;;;;;;;4.13;1.70;;;;;;;29.47;36.64;100493.59;4992968;28;20081;-70
2021/06/27 10:12:06;;;;;;;2.38;1.63;;;;;;;29.52;35.92;100506.75;4991168;28;20065;-69
2021/06/27 10:14:51;;;;;;;3.45;1.63;;;;;;;29.53;36.13;100494.81;4993159;28;20494;-70
2021/06/27 10:17:20;;;;;;;2.80;1.80;;;;;;;29.65;35.70;100487.03;4992412;28;20125;-70
2021/06/27 10:19:47;;;;;;;3.38;1.80;;;;;;;29.80;35.64;100491.53;4993066;28;20129;-70
2021/06/27 10:22:15;;;;;;;2.75;1.40;;;;;;;29.90;34.99;100504.25;4992077;28;20085;-70
2021/06/27 10:24:41;;;;;;;3.30;1.60;;;;;;;30.11;34.55;100504.19;4973602;28;20070;-71
2021/06/27 10:27:10;;;;;;;2.75;1.65;;;;;;;30.30;34.31;100490.63;4973441;28;20097;-70
2021/06/27 10:29:39;;;;;;;4.13;1.85;;;;;;;30.12;35.06;100497.22;4991923;28;20141;-71
2021/06/27 10:32:07;;;;;;;6.45;2.70;;;;;;;30.23;34.40;100494.34;4993313;28;20081;-71
2021/06/27 10:34:34;;;;;;;4.13;1.80;;;;;;;30.49;33.72;100506.56;4988128;28;20078;-71
2021/06/27 10:37:23;;;;;;;3.13;1.83;;;;;;;30.40;33.95;100509.91;4977715;28;20050;-71
2021/06/27 10:39:59;;;;;;;3.47;1.50;;;;;;;30.50;33.71;100500.41;4972958;28;20055;-70
2021/06/27 10:42:47;;;;;;;3.95;1.70;;;;;;;30.29;34.24;100518.59;4973690;28;20133;-71
2021/06/27 10:45:43;;;;;;;3.70;2.00;;;;;;;29.88;34.23;100496.06;4973173;28;20095;-72
2021/06/27 10:48:32;;;;;;;5.10;2.13;;;;;;;30.04;34.13;100514.94;4972396;28;20125;-71
2021/06/27 10:51:02;;;;;;;4.28;1.70;;;;;;;30.31;33.26;100504.59;4973478;28;20058;-72
2021/06/27 10:53:29;;;;;;;5.93;1.92;;;;;;;30.13;33.18;100503.81;4988086;28;20133;-71
2021/06/27 10:55:58;;;;;;;6.90;1.70;;;;;;;30.07;33.15;100535.06;4992018;28;20089;-72
2021/06/27 10:58:37;;;;;;;3.42;1.30;;;;;;;29.97;33.56;100530.97;4992013;28;20130;-71
2021/06/27 11:01:11;;;;;;;5.53;2.17;;;;;;;29.82;33.27;100477.56;4992435;28;20046;-71
2021/06/27 11:03:45;;;;;;;2.67;1.15;;;;;;;30.10;32.41;100533.44;4992352;28;20331;-71
2021/06/27 11:06:17;;;;;;;2.60;1.00;;;;;;;30.09;32.40;100537.56;4973502;28;20074;-72
2021/06/27 11:08:50;;;;;;;2.85;1.00;;;;;;;30.13;31.78;100536.31;4973045;28;20098;-71
2021/06/27 11:11:20;;;;;;;4.43;2.22;;;;;;;30.22;31.56;100550.28;4981817;28;20054;-71
2021/06/27 11:14:12;;;;;;;3.28;1.10;;;;;;;30.13;31.38;100547.81;4995871;28;20082;-71
2021/06/27 11:17:02;;;;;;;3.67;1.38;;;;;;;30.07;31.79;100552.34;4996446;28;20050;-71
2021/06/27 11:19:30;;;;;;;2.78;1.00;;;;;;;29.90;31.48;100558.97;4995851;28;20046;-70
2021/06/27 11:22:17;;;;;;;5.93;1.70;;;;;;;29.92;31.29;100545.00;4995463;28;20134;-70
2021/06/27 11:24:45;;;;;;;3.47;1.48;;;;;;;29.99;31.60;100544.97;4994423;28;20081;-71
2021/06/27 11:27:36;;;;;;;2.72;1.30;;;;;;;30.13;31.27;100552.75;4995983;28;20134;-71
2021/06/27 11:30:26;;;;;;;3.17;1.40;;;;;;;29.96;31.28;100555.25;5010872;28;20534;-71
2021/06/27 11:32:54;;;;;;;3.22;1.85;;;;;;;30.08;31.08;100551.09;4976575;28;20403;-71
2021/06/27 11:35:40;;;;;;;2.47;1.80;;;;;;;30.01;31.40;100558.94;4984985;28;20054;-71